createdAt,value
2023-02-03T00:01:18.055Z,80.73
2023-02-03T00:02:49.801Z,81.15
2023-02-03T00:04:21.494Z,81.55
2023-02-03T00:05:54.109Z,82.05
2023-02-03T00:07:25.821Z,81.81
2023-02-03T00:08:59.479Z,81.80
2023-02-03T00:10:31.171Z,81.73
2023-02-03T00:12:02.748Z,80.90
2023-02-03T00:13:35.269Z,81.63
2023-02-03T00:15:07.410Z,81.95
2023-02-03T00:16:39.113Z,82.06
2023-02-03T00:18:10.838Z,82.52
2023-02-03T00:19:42.499Z,83.02
2023-02-03T00:21:15.206Z,82.99
2023-02-03T00:22:46.835Z,83.38
2023-02-03T00:24:20.398Z,83.79
2023-02-03T00:25:52.564Z,83.52
2023-02-03T00:27:24.414Z,83.55
2023-02-03T00:28:59.771Z,83.00
2023-02-03T00:30:33.866Z,83.30
2023-02-03T00:32:05.710Z,83.00
2023-02-03T00:33:39.063Z,82.96
2023-02-03T00:35:10.660Z,83.38
2023-02-03T00:36:43.122Z,83.41
2023-02-03T00:38:14.875Z,83.23
2023-02-03T00:39:46.803Z,84.07
2023-02-03T00:41:19.485Z,84.28
2023-02-03T00:42:52.500Z,83.90
2023-02-03T00:44:24.193Z,83.31
2023-02-03T00:45:56.204Z,83.77
2023-02-03T00:47:27.905Z,83.96
2023-02-03T00:48:59.522Z,84.06
2023-02-03T00:50:31.130Z,85.07
2023-02-03T00:52:02.933Z,84.26
2023-02-03T00:53:34.625Z,85.05
2023-02-03T00:55:07.372Z,84.98
2023-02-03T00:56:39.576Z,84.83
2023-02-03T00:58:11.310Z,84.86
2023-02-03T00:59:42.939Z,84.43
2023-02-03T01:01:14.658Z,84.96
2023-02-03T01:02:47.189Z,84.44
2023-02-03T01:04:18.802Z,85.25
2023-02-03T01:05:50.581Z,84.81
2023-02-03T01:07:22.298Z,84.61
2023-02-03T01:08:54.634Z,83.82
2023-02-03T01:10:26.525Z,84.78
2023-02-03T01:11:58.382Z,84.43
2023-02-03T01:13:30.039Z,84.68
2023-02-03T01:15:01.628Z,84.40
2023-02-03T01:16:36.349Z,84.47
2023-02-03T01:18:08.184Z,84.29
2023-02-03T01:19:39.779Z,84.18
2023-02-03T01:21:24.155Z,84.72
2023-02-03T01:22:55.822Z,83.75
2023-02-03T01:24:30.558Z,83.72
2023-02-03T01:26:04.498Z,83.31
2023-02-03T01:27:36.207Z,83.35
2023-02-03T01:29:08.640Z,83.64
2023-02-03T01:30:40.487Z,83.44
2023-02-03T01:32:12.263Z,82.72
2023-02-03T01:33:48.119Z,83.11
2023-02-03T01:35:19.872Z,82.47
2023-02-03T01:36:52.004Z,83.63
2023-02-03T01:38:23.576Z,83.43
2023-02-03T01:39:55.222Z,83.46
2023-02-03T01:41:31.045Z,83.42
2023-02-03T01:43:02.801Z,82.63
2023-02-03T01:44:43.751Z,83.80
2023-02-03T01:46:35.592Z,83.43
2023-02-03T01:48:08.396Z,82.64
2023-02-03T01:49:42.873Z,82.37
2023-02-03T01:51:14.828Z,82.62
2023-02-03T01:52:51.394Z,82.10
2023-02-03T01:54:28.055Z,82.12
2023-02-03T01:56:01.793Z,81.54
2023-02-03T01:57:38.271Z,81.87
2023-02-03T01:59:10.111Z,81.58
2023-02-03T02:00:43.143Z,82.01
2023-02-03T02:02:14.989Z,81.97
2023-02-03T02:03:54.325Z,82.13
2023-02-03T02:05:32.522Z,82.34
2023-02-03T02:07:04.948Z,81.84
2023-02-03T02:08:38.477Z,82.10
2023-02-03T02:10:10.958Z,81.83
2023-02-03T02:11:42.681Z,81.65
2023-02-03T02:13:15.845Z,81.47
2023-02-03T02:14:50.354Z,81.40
2023-02-03T02:16:30.999Z,81.27
2023-02-03T02:18:21.294Z,81.77
2023-02-03T02:20:30.847Z,81.28
2023-02-03T02:22:05.159Z,81.73
2023-02-03T02:23:52.770Z,81.16
2023-02-03T02:25:34.934Z,81.91
2023-02-03T02:27:31.363Z,81.31
2023-02-03T02:29:47.392Z,81.78
2023-02-03T02:31:39.650Z,81.99
2023-02-03T02:33:17.469Z,82.04
2023-02-03T02:35:07.520Z,81.89
2023-02-03T02:37:03.765Z,81.18
2023-02-03T02:38:54.674Z,82.24
2023-02-03T02:40:29.102Z,83.16
2023-02-03T02:42:15.929Z,82.69
2023-02-03T02:44:12.724Z,82.48
2023-02-03T02:45:50.386Z,82.99
2023-02-03T02:47:23.987Z,81.88
2023-02-03T02:49:21.145Z,82.14
2023-02-03T02:50:57.290Z,82.08
2023-02-03T02:52:31.708Z,81.68
2023-02-03T02:54:09.192Z,81.56
2023-02-03T02:55:43.148Z,81.96
2023-02-03T02:57:18.655Z,81.43
2023-02-03T02:58:51.850Z,80.92
2023-02-03T03:00:23.965Z,81.75
2023-02-03T03:01:55.659Z,81.00
2023-02-03T03:03:27.286Z,82.05
2023-02-03T03:04:59.032Z,81.20
2023-02-03T03:06:45.757Z,81.15
2023-02-03T03:08:21.200Z,81.46
2023-02-03T03:10:02.548Z,81.30
2023-02-03T03:11:50.135Z,81.31
2023-02-03T03:13:35.334Z,81.32
2023-02-03T03:15:11.121Z,81.10
2023-02-03T03:16:47.986Z,81.36
2023-02-03T03:18:27.625Z,81.44
2023-02-03T03:20:05.148Z,81.25
2023-02-03T03:21:43.516Z,80.67
2023-02-03T03:23:25.128Z,80.63
2023-02-03T03:25:14.913Z,80.30
2023-02-03T03:26:54.521Z,80.87
2023-02-03T03:28:35.525Z,81.03
2023-02-03T03:30:15.864Z,80.86
2023-02-03T03:31:48.438Z,80.95
2023-02-03T03:33:21.347Z,81.09
2023-02-03T03:34:53.100Z,80.68
2023-02-03T03:36:27.610Z,80.48
2023-02-03T03:38:23.627Z,80.71
2023-02-03T03:39:58.583Z,80.78
2023-02-03T03:42:02.477Z,81.00
2023-02-03T03:43:40.671Z,80.70
2023-02-03T03:45:35.789Z,80.33
2023-02-03T03:47:12.774Z,80.27
2023-02-03T03:48:55.865Z,80.57
2023-02-03T03:50:37.644Z,80.48
2023-02-03T03:52:12.446Z,80.50
2023-02-03T03:53:47.225Z,80.53
2023-02-03T03:55:20.625Z,80.90
2023-02-03T03:57:02.472Z,80.42
2023-02-03T03:58:37.217Z,80.54
2023-02-03T04:00:11.403Z,81.13
2023-02-03T04:01:46.523Z,80.86
2023-02-03T04:03:23.424Z,80.99
2023-02-03T04:04:56.500Z,80.59
2023-02-03T04:06:28.368Z,80.10
2023-02-03T04:08:00.993Z,79.90
2023-02-03T04:09:32.790Z,80.44
2023-02-03T04:11:04.550Z,79.95
2023-02-03T04:12:36.232Z,79.98
2023-02-03T04:14:07.825Z,80.35
2023-02-03T04:15:39.484Z,79.87
2023-02-03T04:17:11.070Z,79.68
2023-02-03T04:18:42.628Z,79.44
2023-02-03T04:20:14.626Z,79.45
2023-02-03T04:21:46.296Z,79.61
2023-02-03T04:23:18.051Z,79.51
2023-02-03T04:24:49.615Z,79.55
2023-02-03T04:26:21.152Z,79.97
2023-02-03T04:27:52.974Z,80.06
2023-02-03T04:29:24.548Z,80.33
2023-02-03T04:30:56.250Z,79.65
2023-02-03T04:32:27.880Z,79.66
2023-02-03T04:33:59.504Z,79.52
2023-02-03T04:35:31.099Z,79.25
2023-02-03T04:37:02.715Z,79.98
2023-02-03T04:38:34.724Z,80.16
2023-02-03T04:40:07.434Z,80.19
2023-02-03T04:41:39.086Z,80.57
2023-02-03T04:43:10.992Z,79.60
2023-02-03T04:44:42.595Z,80.06
2023-02-03T04:46:14.342Z,80.58
2023-02-03T04:47:53.988Z,80.68
2023-02-03T04:49:25.799Z,79.94
2023-02-03T04:51:02.831Z,79.62
2023-02-03T04:52:34.466Z,79.72
2023-02-03T04:54:06.207Z,79.84
2023-02-03T04:55:37.799Z,79.78
2023-02-03T04:57:09.441Z,79.67
2023-02-03T04:58:41.019Z,79.66
2023-02-03T05:00:13.341Z,79.05
2023-02-03T05:01:44.953Z,79.19
2023-02-03T05:03:16.551Z,78.88
2023-02-03T05:04:48.108Z,78.95
2023-02-03T05:06:27.215Z,79.42
2023-02-03T05:07:58.799Z,79.63
2023-02-03T05:09:30.501Z,79.48
2023-02-03T05:11:02.514Z,79.63
2023-02-03T05:12:34.192Z,79.04
2023-02-03T05:14:05.839Z,80.06
2023-02-03T05:15:37.496Z,79.44
2023-02-03T05:17:09.154Z,80.16
2023-02-03T05:18:40.861Z,79.86
2023-02-03T05:20:12.508Z,80.39
2023-02-03T05:21:44.172Z,79.88
2023-02-03T05:23:15.783Z,79.59
2023-02-03T05:24:47.470Z,80.34
2023-02-03T05:26:19.433Z,81.08
2023-02-03T05:27:51.050Z,80.67
2023-02-03T05:29:22.607Z,80.97
2023-02-03T05:30:54.292Z,79.53
2023-02-03T05:32:25.965Z,79.84
2023-02-03T05:33:57.587Z,80.13
2023-02-03T05:35:29.104Z,81.30
2023-02-03T05:37:00.984Z,81.04
2023-02-03T05:38:32.583Z,80.35
2023-02-03T05:40:23.198Z,80.55
2023-02-03T05:41:57.206Z,80.72
2023-02-03T05:43:29.792Z,80.76
2023-02-03T05:45:01.411Z,81.13
2023-02-03T05:46:33.121Z,80.14
2023-02-03T05:48:04.898Z,79.87
2023-02-03T05:49:36.532Z,79.98
2023-02-03T05:51:08.101Z,80.37
2023-02-03T05:52:39.725Z,80.12
2023-02-03T05:54:11.680Z,80.52
2023-02-03T05:55:43.352Z,80.08
2023-02-03T05:57:14.974Z,79.63
2023-02-03T05:58:46.585Z,79.74
2023-02-03T06:00:18.623Z,80.43
2023-02-03T06:01:50.251Z,78.69
2023-02-03T06:03:22.035Z,79.28
2023-02-03T06:04:53.698Z,79.39
2023-02-03T06:06:25.436Z,79.57
2023-02-03T06:07:57.352Z,79.52
2023-02-03T06:09:28.920Z,78.93
2023-02-03T06:11:03.272Z,78.86
2023-02-03T06:12:34.901Z,78.96
2023-02-03T06:14:06.566Z,79.21
2023-02-03T06:15:38.234Z,78.91
2023-02-03T06:17:09.872Z,79.36
2023-02-03T06:18:41.427Z,79.04
2023-02-03T06:20:15.297Z,79.12
2023-02-03T06:21:46.956Z,79.82
2023-02-03T06:23:19.266Z,80.13
2023-02-03T06:24:50.875Z,80.26
2023-02-03T06:26:22.644Z,79.61
2023-02-03T06:27:54.297Z,79.27
2023-02-03T06:29:25.963Z,79.59
2023-02-03T06:30:57.653Z,79.21
2023-02-03T06:32:29.399Z,79.41
2023-02-03T06:34:02.623Z,79.53
2023-02-03T06:35:34.451Z,79.16
2023-02-03T06:37:06.841Z,79.13
2023-02-03T06:38:38.561Z,79.14
2023-02-03T06:40:11.376Z,79.02
2023-02-03T06:41:43.021Z,79.36
2023-02-03T06:43:15.269Z,79.48
2023-02-03T06:44:46.829Z,79.12
2023-02-03T06:46:18.593Z,78.66
2023-02-03T06:47:50.489Z,79.48
2023-02-03T06:49:22.260Z,79.30
2023-02-03T06:50:53.857Z,79.64
2023-02-03T06:52:25.511Z,79.39
2023-02-03T06:53:58.655Z,79.36
2023-02-03T06:55:30.352Z,79.83
2023-02-03T06:57:02.050Z,80.58
2023-02-03T06:58:33.613Z,80.48
2023-02-03T07:00:05.623Z,79.90
2023-02-03T07:01:37.896Z,80.86
2023-02-03T07:03:09.580Z,80.59
2023-02-03T07:04:41.271Z,80.28
2023-02-03T07:06:14.881Z,79.99
2023-02-03T07:07:46.505Z,80.36
2023-02-03T07:09:18.194Z,80.59
2023-02-03T07:10:54.715Z,80.33
2023-02-03T07:12:26.389Z,80.73
2023-02-03T07:13:58.352Z,80.73
2023-02-03T07:15:30.025Z,80.79
2023-02-03T07:17:03.094Z,80.63
2023-02-03T07:18:49.961Z,79.74
2023-02-03T07:20:23.846Z,80.19
2023-02-03T07:21:55.549Z,79.54
2023-02-03T07:23:27.277Z,79.48
2023-02-03T07:24:58.871Z,79.68
2023-02-03T07:26:30.827Z,80.10
2023-02-03T07:28:02.585Z,79.47
2023-02-03T07:29:34.215Z,79.58
2023-02-03T07:31:08.177Z,79.54
2023-02-03T07:32:39.880Z,78.65
2023-02-03T07:34:11.643Z,79.19
2023-02-03T07:35:43.438Z,79.00
2023-02-03T07:37:14.992Z,79.15
2023-02-03T07:38:46.624Z,79.04
2023-02-03T07:40:18.809Z,78.69
2023-02-03T07:41:50.462Z,78.50
2023-02-03T07:43:22.734Z,78.20
2023-02-03T07:44:54.324Z,78.30
2023-02-03T07:46:25.981Z,78.52
2023-02-03T07:47:57.677Z,78.67
2023-02-03T07:49:29.298Z,78.31
2023-02-03T07:51:01.018Z,79.30
2023-02-03T07:52:33.029Z,78.67
2023-02-03T07:54:04.966Z,78.68
2023-02-03T07:55:39.141Z,78.29
2023-02-03T07:57:10.817Z,79.15
2023-02-03T07:58:42.954Z,79.30
2023-02-03T08:00:16.780Z,78.38
2023-02-03T08:01:48.862Z,78.55
2023-02-03T08:03:20.825Z,78.49
2023-02-03T08:04:52.732Z,79.07
2023-02-03T08:06:24.414Z,78.97
2023-02-03T08:07:57.055Z,79.70
2023-02-03T08:09:28.881Z,78.86
2023-02-03T08:11:00.925Z,78.75
2023-02-03T08:12:32.619Z,78.49
2023-02-03T08:14:04.459Z,78.93
2023-02-03T08:15:36.255Z,79.08
2023-02-03T08:17:08.395Z,78.99
2023-02-03T08:18:40.266Z,79.74
2023-02-03T08:20:12.765Z,79.91
2023-02-03T08:21:44.534Z,80.42
2023-02-03T08:23:16.537Z,79.39
2023-02-03T08:24:48.754Z,79.70
2023-02-03T08:26:20.815Z,79.76
2023-02-03T08:27:55.521Z,79.10
2023-02-03T08:29:27.555Z,79.15
2023-02-03T08:30:59.480Z,79.44
2023-02-03T08:32:32.992Z,79.38
2023-02-03T08:34:05.824Z,79.39
2023-02-03T08:35:38.099Z,79.90
2023-02-03T08:37:11.577Z,79.90
2023-02-03T08:38:43.243Z,79.29
2023-02-03T08:40:15.440Z,79.10
2023-02-03T08:41:47.356Z,79.41
2023-02-03T08:43:18.997Z,79.28
2023-02-03T08:44:50.736Z,78.31
2023-02-03T08:46:22.463Z,78.74
2023-02-03T08:47:54.099Z,79.38
2023-02-03T08:49:28.277Z,79.21
2023-02-03T08:51:00.143Z,79.83
2023-02-03T08:52:31.752Z,78.85
2023-02-03T08:54:03.657Z,79.29
2023-02-03T08:55:39.223Z,79.95
2023-02-03T08:57:11.430Z,79.18
2023-02-03T08:58:43.088Z,79.60
2023-02-03T09:00:15.383Z,78.41
2023-02-03T09:01:48.458Z,78.15
2023-02-03T09:03:20.213Z,78.62
2023-02-03T09:04:52.326Z,77.73
2023-02-03T09:06:26.202Z,78.56
2023-02-03T09:07:58.350Z,78.39
2023-02-03T09:09:31.111Z,79.14
2023-02-03T09:11:02.974Z,77.97
2023-02-03T09:12:34.642Z,78.24
2023-02-03T09:14:07.478Z,77.82
2023-02-03T09:15:39.135Z,78.27
2023-02-03T09:17:10.731Z,77.39
2023-02-03T09:18:42.380Z,77.50
2023-02-03T09:20:15.100Z,77.78
2023-02-03T09:21:49.104Z,77.98
2023-02-03T09:23:20.855Z,77.03
2023-02-03T09:24:52.461Z,77.41
2023-02-03T09:26:24.090Z,76.28
2023-02-03T09:27:55.735Z,76.14
2023-02-03T09:29:27.593Z,75.70
2023-02-03T09:31:07.112Z,76.12
2023-02-03T09:32:38.797Z,75.88
2023-02-03T09:34:10.457Z,75.02
2023-02-03T09:35:42.083Z,75.12
2023-02-03T09:37:13.982Z,75.36
2023-02-03T09:38:45.721Z,73.63
2023-02-03T09:40:30.459Z,73.18
2023-02-03T09:42:24.383Z,74.88
2023-02-03T09:44:26.521Z,74.44
2023-02-03T09:46:18.279Z,74.35
2023-02-03T09:47:54.196Z,75.08
2023-02-03T09:49:33.852Z,74.92
2023-02-03T09:51:09.960Z,75.15
2023-02-03T09:52:42.092Z,75.31
2023-02-03T09:54:20.835Z,75.97
2023-02-03T09:55:53.228Z,75.57
2023-02-03T09:57:27.721Z,74.57
2023-02-03T09:58:59.837Z,74.36
2023-02-03T10:00:40.354Z,72.92
2023-02-03T10:02:35.023Z,73.30
2023-02-03T10:04:18.834Z,72.43
2023-02-03T10:05:56.591Z,71.54
2023-02-03T10:07:51.241Z,71.30
2023-02-03T10:09:32.740Z,71.46
2023-02-03T10:11:11.032Z,72.12
2023-02-03T10:13:01.452Z,71.28
2023-02-03T10:14:39.389Z,71.59
2023-02-03T10:16:20.355Z,71.05
2023-02-03T10:18:00.241Z,70.88
2023-02-03T10:19:43.711Z,70.88
2023-02-03T10:21:31.319Z,71.14
2023-02-03T10:23:10.501Z,71.74
2023-02-03T10:24:52.272Z,70.98
2023-02-03T10:26:28.348Z,71.36
2023-02-03T10:28:03.719Z,71.40
2023-02-03T10:29:42.627Z,70.78
2023-02-03T10:31:23.748Z,70.31
2023-02-03T10:33:00.632Z,70.59
2023-02-03T10:34:32.366Z,70.17
2023-02-03T10:36:30.112Z,68.79
2023-02-03T10:38:01.885Z,67.55
2023-02-03T10:39:39.175Z,68.71
2023-02-03T10:41:11.299Z,67.76
2023-02-03T10:43:04.905Z,68.50
2023-02-03T10:44:39.730Z,68.97
2023-02-03T10:46:11.493Z,69.43
2023-02-03T10:47:48.589Z,70.27
2023-02-03T10:49:21.782Z,69.63
2023-02-03T10:50:55.586Z,71.19
2023-02-03T10:52:36.325Z,70.33
2023-02-03T10:54:36.195Z,70.20
2023-02-03T10:56:12.466Z,70.85
2023-02-03T10:57:44.076Z,71.26
2023-02-03T10:59:38.074Z,71.21
2023-02-03T11:01:15.312Z,71.44
2023-02-03T11:03:06.261Z,70.64
2023-02-03T11:04:37.971Z,70.80
2023-02-03T11:06:15.228Z,70.73
2023-02-03T11:07:47.630Z,70.56
2023-02-03T11:09:33.179Z,71.18
2023-02-03T11:11:08.519Z,70.72
2023-02-03T11:12:40.172Z,71.46
2023-02-03T11:14:16.707Z,71.00
2023-02-03T11:16:01.953Z,69.45
2023-02-03T11:17:36.504Z,69.42
2023-02-03T11:19:20.533Z,69.11
2023-02-03T11:20:52.329Z,68.75
2023-02-03T11:22:38.947Z,67.52
2023-02-03T11:24:31.744Z,67.12
2023-02-03T11:26:15.081Z,67.28
2023-02-03T11:27:47.312Z,66.64
2023-02-03T11:29:24.389Z,66.66
2023-02-03T11:30:57.900Z,67.76
2023-02-03T11:32:35.517Z,68.73
2023-02-03T11:34:16.946Z,68.50
2023-02-03T11:35:57.879Z,69.70
2023-02-03T11:37:32.319Z,69.33
2023-02-03T11:39:25.457Z,69.94
2023-02-03T11:41:01.341Z,70.13
2023-02-03T11:42:34.768Z,69.82
2023-02-03T11:44:24.321Z,70.07
2023-02-03T11:46:07.752Z,71.15
2023-02-03T11:47:45.813Z,70.28
2023-02-03T11:49:31.594Z,69.77
2023-02-03T11:51:18.118Z,70.73
2023-02-03T11:53:03.601Z,70.96
2023-02-03T11:54:53.694Z,70.37
2023-02-03T11:56:31.310Z,70.82
2023-02-03T11:58:39.939Z,70.65
2023-02-03T12:00:27.468Z,71.72
2023-02-03T12:02:25.639Z,70.88
2023-02-03T12:04:24.591Z,71.87
2023-02-03T12:06:34.531Z,72.29
2023-02-03T12:08:09.754Z,71.68
2023-02-03T12:10:01.240Z,71.69
2023-02-03T12:11:45.259Z,71.83
2023-02-03T12:13:16.903Z,71.89
2023-02-03T12:15:25.519Z,72.60
2023-02-03T12:17:15.751Z,71.99
2023-02-03T12:19:14.048Z,72.01
2023-02-03T12:21:07.981Z,72.44
2023-02-03T12:23:04.485Z,71.86
2023-02-03T12:24:45.444Z,72.30
2023-02-03T12:26:39.029Z,72.53
2023-02-03T12:28:33.815Z,72.99
2023-02-03T12:30:10.642Z,72.22
2023-02-03T12:32:26.912Z,72.34
2023-02-03T12:34:20.111Z,73.39
2023-02-03T12:36:14.979Z,72.40
2023-02-03T12:37:54.083Z,72.25
2023-02-03T12:39:30.876Z,72.42
2023-02-03T12:41:12.533Z,71.94
2023-02-03T12:42:50.896Z,72.28
2023-02-03T12:44:31.326Z,72.00
2023-02-03T12:46:22.650Z,71.76
2023-02-03T12:48:13.916Z,72.26
2023-02-03T12:49:58.224Z,71.52
2023-02-03T12:51:29.884Z,71.41
2023-02-03T12:53:09.709Z,71.18
2023-02-03T12:54:41.224Z,72.04
2023-02-03T12:56:16.503Z,70.64
2023-02-03T12:58:06.131Z,71.27
2023-02-03T12:59:41.857Z,71.50
2023-02-03T13:01:13.606Z,71.23
2023-02-03T13:03:03.852Z,71.01
2023-02-03T13:04:49.565Z,71.22
2023-02-03T13:06:49.947Z,72.19
2023-02-03T13:08:43.365Z,72.20
2023-02-03T13:10:43.948Z,71.94
2023-02-03T13:12:37.074Z,71.91
2023-02-03T13:14:22.015Z,72.68
2023-02-03T13:15:56.448Z,72.21
2023-02-03T13:17:34.626Z,72.60
2023-02-03T13:19:15.143Z,73.33
2023-02-03T13:20:47.105Z,71.91
2023-02-03T13:22:23.637Z,72.65
2023-02-03T13:23:56.041Z,72.58
2023-02-03T13:25:53.997Z,72.51
2023-02-03T13:27:40.775Z,72.83
2023-02-03T13:29:49.493Z,72.77
2023-02-03T13:31:24.189Z,72.55
2023-02-03T13:33:11.211Z,72.57
2023-02-03T13:35:18.665Z,72.62
2023-02-03T13:37:16.765Z,73.07
2023-02-03T13:39:07.012Z,72.30
2023-02-03T13:40:57.282Z,72.18
2023-02-03T13:42:35.141Z,72.74
2023-02-03T13:44:16.661Z,72.49
2023-02-03T13:45:51.870Z,72.27
2023-02-03T13:47:32.026Z,72.48
2023-02-03T13:49:06.399Z,72.33
2023-02-03T13:50:39.740Z,72.08
2023-02-03T13:52:28.389Z,72.15
2023-02-03T13:54:03.223Z,72.94
2023-02-03T13:55:39.644Z,72.81
2023-02-03T13:57:24.812Z,72.03
2023-02-03T13:59:14.506Z,72.23
2023-02-03T14:00:46.018Z,72.35
2023-02-03T14:02:23.439Z,72.74
2023-02-03T14:03:56.369Z,73.10
2023-02-03T14:05:49.557Z,72.15
2023-02-03T14:07:24.977Z,72.84
2023-02-03T14:09:00.217Z,71.36
2023-02-03T14:10:32.421Z,71.71
2023-02-03T14:12:13.483Z,71.54
2023-02-03T14:13:45.308Z,71.10
2023-02-03T14:15:26.314Z,71.38
2023-02-03T14:16:58.184Z,71.73
2023-02-03T14:18:43.673Z,71.64
2023-02-03T14:20:27.728Z,70.86
2023-02-03T14:22:02.727Z,72.39
2023-02-03T14:23:41.759Z,71.94
2023-02-03T14:25:18.216Z,71.74
2023-02-03T14:26:53.076Z,71.61
2023-02-03T14:28:39.381Z,71.62
2023-02-03T14:30:12.313Z,71.64
2023-02-03T14:32:08.571Z,71.22
2023-02-03T14:33:49.671Z,71.46
2023-02-03T14:35:30.681Z,71.54
2023-02-03T14:37:14.334Z,71.77
2023-02-03T14:38:46.330Z,72.70
2023-02-03T14:40:55.674Z,72.06
2023-02-03T14:42:30.275Z,71.89
2023-02-03T14:44:23.415Z,71.73
2023-02-03T14:46:26.580Z,72.07
2023-02-03T14:48:40.330Z,71.73
2023-02-03T14:50:39.262Z,71.83
2023-02-03T14:52:19.784Z,72.05
2023-02-03T14:54:09.861Z,71.83
2023-02-03T14:55:41.683Z,72.03
2023-02-03T14:57:31.994Z,71.86
2023-02-03T14:59:10.240Z,71.82
2023-02-03T15:00:42.064Z,72.29
2023-02-03T15:02:27.218Z,71.94
2023-02-03T15:04:28.504Z,72.44
2023-02-03T15:06:03.441Z,72.84
2023-02-03T15:07:37.402Z,72.29
2023-02-03T15:09:27.468Z,72.38
2023-02-03T15:11:00.479Z,73.06
2023-02-03T15:12:38.954Z,73.10
2023-02-03T15:14:20.673Z,73.28
2023-02-03T15:16:06.001Z,73.79
2023-02-03T15:17:38.821Z,73.80
2023-02-03T15:19:18.882Z,74.01
2023-02-03T15:20:54.416Z,74.61
2023-02-03T15:22:29.072Z,74.43
2023-02-03T15:24:00.799Z,74.80
2023-02-03T15:25:33.157Z,75.10
2023-02-03T15:27:04.805Z,75.17
2023-02-03T15:28:36.652Z,74.36
2023-02-03T15:30:19.119Z,74.82
2023-02-03T15:32:08.776Z,75.65
2023-02-03T15:33:44.256Z,75.38
2023-02-03T15:35:19.670Z,74.64
2023-02-03T15:36:56.469Z,75.08
2023-02-03T15:38:35.712Z,74.96
2023-02-03T15:40:23.550Z,75.11
2023-02-03T15:41:58.345Z,75.25
2023-02-03T15:43:42.054Z,75.85
2023-02-03T15:45:39.988Z,75.33
2023-02-03T15:47:25.270Z,75.26
2023-02-03T15:49:14.013Z,75.49
2023-02-03T15:50:54.684Z,75.29
2023-02-03T15:52:28.204Z,75.65
2023-02-03T15:54:06.510Z,75.62
2023-02-03T15:55:43.852Z,75.85
2023-02-03T15:57:23.940Z,76.13
2023-02-03T15:58:58.725Z,76.02
2023-02-03T16:00:38.358Z,75.61
2023-02-03T16:02:31.721Z,75.54
2023-02-03T16:04:11.445Z,75.96
2023-02-03T16:05:48.722Z,75.93
2023-02-03T16:07:25.455Z,75.71
2023-02-03T16:08:59.613Z,75.41
2023-02-03T16:10:33.653Z,75.50
2023-02-03T16:12:19.071Z,75.95
2023-02-03T16:13:50.895Z,76.11
2023-02-03T16:15:24.954Z,76.76
2023-02-03T16:17:05.073Z,76.11
2023-02-03T16:18:37.799Z,76.21
2023-02-03T16:20:12.203Z,76.32
2023-02-03T16:21:49.820Z,76.36
2023-02-03T16:23:27.495Z,76.44
2023-02-03T16:25:13.825Z,75.88
2023-02-03T16:26:45.539Z,75.66
2023-02-03T16:28:36.522Z,75.82
2023-02-03T16:30:26.731Z,76.14
2023-02-03T16:32:17.666Z,76.08
2023-02-03T16:34:09.245Z,76.16
2023-02-03T16:35:59.616Z,75.98
2023-02-03T16:37:52.631Z,76.79
2023-02-03T16:39:45.379Z,76.48
2023-02-03T16:41:36.711Z,76.82
2023-02-03T16:43:32.397Z,77.29
2023-02-03T16:45:30.198Z,77.82
2023-02-03T16:47:21.678Z,77.68
2023-02-03T16:49:11.909Z,77.37
2023-02-03T16:50:59.281Z,78.03
2023-02-03T16:52:32.184Z,78.45
2023-02-03T16:54:03.918Z,77.69
2023-02-03T16:55:35.588Z,77.62
2023-02-03T16:57:07.311Z,77.95
2023-02-03T16:58:39.185Z,77.66
2023-02-03T17:00:13.154Z,77.92
2023-02-03T17:01:45.007Z,77.77
2023-02-03T17:03:20.277Z,78.24
2023-02-03T17:04:51.980Z,78.27
2023-02-03T17:06:23.784Z,77.42
2023-02-03T17:07:55.611Z,77.84
2023-02-03T17:09:27.395Z,77.74
2023-02-03T17:11:22.243Z,78.29
2023-02-03T17:12:54.049Z,78.04
2023-02-03T17:14:26.996Z,77.38
2023-02-03T17:15:58.717Z,77.34
2023-02-03T17:17:30.782Z,77.25
2023-02-03T17:20:46.206Z,77.55
2023-02-03T17:22:17.952Z,77.09
2023-02-03T17:23:50.051Z,77.84
2023-02-03T17:25:22.201Z,77.54
2023-02-03T17:26:54.818Z,77.70
2023-02-03T17:28:26.878Z,77.39
2023-02-03T17:29:58.712Z,77.75
2023-02-03T17:31:31.402Z,77.52
2023-02-03T17:33:12.065Z,77.18
2023-02-03T17:34:44.618Z,77.60
2023-02-03T17:36:19.605Z,77.56
2023-02-03T17:37:51.444Z,77.21
2023-02-03T17:54:06.199Z,77.52
2023-02-03T17:55:37.946Z,77.59
2023-02-03T17:57:09.757Z,77.79
2023-02-03T17:58:42.153Z,77.90
2023-02-03T18:00:14.165Z,78.96
2023-02-03T18:01:46.851Z,78.91
2023-02-03T18:03:18.501Z,79.26
2023-02-03T18:04:50.547Z,79.23
2023-02-03T18:06:24.140Z,79.21
2023-02-03T18:07:56.218Z,79.48
2023-02-03T18:09:27.847Z,79.19
2023-02-03T18:10:59.615Z,79.81
2023-02-03T18:12:31.362Z,79.72
2023-02-03T18:14:05.399Z,80.03
2023-02-03T18:15:38.455Z,80.72
2023-02-03T18:17:10.154Z,80.82
2023-02-03T18:18:43.386Z,81.43
2023-02-03T18:20:15.136Z,80.69
2023-02-03T18:21:46.884Z,80.75
2023-02-03T18:23:20.044Z,81.43
2023-02-03T18:24:52.289Z,82.21
2023-02-03T18:26:23.969Z,81.75
2023-02-03T18:27:55.883Z,81.25
2023-02-03T18:29:28.174Z,82.18
2023-02-03T18:31:04.283Z,83.06
2023-02-03T18:32:35.921Z,83.07
2023-02-03T18:34:07.654Z,82.90
2023-02-03T18:35:39.579Z,83.22
2023-02-03T18:37:12.079Z,83.07
2023-02-03T18:38:45.791Z,83.24
2023-02-03T18:40:17.655Z,83.17
2023-02-03T18:41:49.368Z,83.88
2023-02-03T18:43:21.929Z,83.74
2023-02-03T18:44:53.618Z,84.15
2023-02-03T18:46:30.702Z,84.20
2023-02-03T18:48:02.601Z,84.88
2023-02-03T18:49:36.093Z,84.21
2023-02-03T18:51:13.531Z,84.59
2023-02-03T18:52:45.444Z,84.57
2023-02-03T18:54:17.167Z,84.13
2023-02-03T18:55:48.833Z,84.28
2023-02-03T18:57:22.509Z,84.34
2023-02-03T18:58:55.115Z,84.92
2023-02-03T19:00:27.686Z,84.90
2023-02-03T19:01:59.597Z,85.02
2023-02-03T19:03:31.308Z,84.93
2023-02-03T19:05:03.062Z,84.48
2023-02-03T19:06:35.965Z,84.72
2023-02-03T19:08:08.654Z,84.94
2023-02-03T19:09:40.992Z,84.79
2023-02-03T19:11:13.699Z,84.20
2023-02-03T19:12:45.778Z,84.63
2023-02-03T19:14:17.742Z,84.52
2023-02-03T19:15:51.416Z,83.97
2023-02-03T19:17:23.651Z,84.43
2023-02-03T19:18:55.421Z,84.33
2023-02-03T19:20:27.358Z,83.98
2023-02-03T19:21:59.214Z,82.78
2023-02-03T19:23:30.896Z,82.67
2023-02-03T19:25:02.727Z,83.03
2023-02-03T19:26:34.780Z,83.17
2023-02-03T19:28:14.270Z,83.06
2023-02-03T19:29:49.431Z,82.70
2023-02-03T19:31:21.294Z,82.93
2023-02-03T19:32:53.185Z,83.92
2023-02-03T19:34:26.910Z,83.17
2023-02-03T19:35:59.368Z,82.72
2023-02-03T19:37:31.095Z,83.14
2023-02-03T19:39:02.876Z,83.27
2023-02-03T19:40:35.283Z,83.11
2023-02-03T19:42:07.134Z,83.81
2023-02-03T19:43:40.150Z,83.27
2023-02-03T19:45:12.814Z,84.24
2023-02-03T19:46:44.538Z,84.62
2023-02-03T19:48:16.537Z,84.23
2023-02-03T19:49:48.256Z,83.79
2023-02-03T19:51:20.156Z,84.08
2023-02-03T19:52:51.853Z,85.06
2023-02-03T19:54:23.619Z,84.24
2023-02-03T19:55:55.425Z,84.90
2023-02-03T19:57:27.168Z,85.60
2023-02-03T19:58:59.151Z,85.36
2023-02-03T20:00:30.979Z,85.76
2023-02-03T20:02:13.697Z,84.92
2023-02-03T20:03:46.083Z,84.92
2023-02-03T20:05:18.040Z,85.72
2023-02-03T20:06:49.726Z,85.34
2023-02-03T20:08:21.585Z,85.19
2023-02-03T20:09:53.650Z,84.64
2023-02-03T20:11:25.368Z,84.71
2023-02-03T20:12:57.229Z,84.54
2023-02-03T20:14:29.111Z,84.84
2023-02-03T20:16:01.106Z,85.15
2023-02-03T20:17:32.839Z,85.60
2023-02-03T20:19:04.598Z,86.04
2023-02-03T20:20:36.358Z,85.74
2023-02-03T20:22:08.010Z,85.40
2023-02-03T20:23:39.860Z,85.21
2023-02-03T20:25:11.616Z,85.17
2023-02-03T20:26:43.327Z,85.42
2023-02-03T20:28:15.006Z,84.95
2023-02-03T20:29:48.752Z,84.64
2023-02-03T20:31:21.802Z,85.66
2023-02-03T20:32:54.745Z,85.06
2023-02-03T20:34:27.505Z,84.70
2023-02-03T20:35:59.375Z,85.22
2023-02-03T20:37:31.089Z,85.84
2023-02-03T20:39:02.978Z,86.53
2023-02-03T20:40:35.210Z,86.38
2023-02-03T20:42:14.626Z,87.08
2023-02-03T20:43:46.651Z,86.43
2023-02-03T20:45:20.604Z,87.51
2023-02-03T20:46:52.952Z,87.44
2023-02-03T20:48:26.869Z,87.35
2023-02-03T20:49:58.592Z,87.63
2023-02-03T20:51:30.267Z,87.28
2023-02-03T20:53:01.967Z,86.53
2023-02-03T20:54:33.649Z,86.87
2023-02-03T20:56:13.052Z,86.78
2023-02-03T20:57:45.660Z,87.41
2023-02-03T20:59:19.307Z,86.95
2023-02-03T21:00:51.845Z,87.46
2023-02-03T21:02:48.165Z,86.79